sensor_id;sensor_type;location;lat;lon;timestamp;P1;durP1;ratioP1;P2;durP2;ratioP2
43504;SDS011;29098;48.184;16.298;2023-11-21T00:02:04;9.38;;;3.25;;
43504;SDS011;29098;48.184;16.298;2023-11-21T00:04:30;4.78;;;2.10;;
43504;SDS011;29098;48.184;16.298;2023-11-21T00:06:55;9.85;;;2.88;;
43504;SDS011;29098;48.184;16.298;2023-11-21T00:09:21;7.18;;;2.33;;
43504;SDS011;29098;48.184;16.298;2023-11-21T00:11:47;6.57;;;2.80;;
43504;SDS011;29098;48.184;16.298;2023-11-21T00:14:12;9.65;;;3.65;;
43504;SDS011;29098;48.184;16.298;2023-11-21T00:16:40;8.27;;;3.03;;
43504;SDS011;29098;48.184;16.298;2023-11-21T00:19:06;8.88;;;2.65;;
43504;SDS011;29098;48.184;16.298;2023-11-21T00:21:32;6.60;;;3.08;;
43504;SDS011;29098;48.184;16.298;2023-11-21T00:23:57;8.45;;;3.10;;
43504;SDS011;29098;48.184;16.298;2023-11-21T00:26:23;5.30;;;3.17;;
43504;SDS011;29098;48.184;16.298;2023-11-21T00:28:49;6.35;;;2.85;;
43504;SDS011;29098;48.184;16.298;2023-11-21T00:31:15;11.07;;;2.33;;
43504;SDS011;29098;48.184;16.298;2023-11-21T00:33:41;5.30;;;2.72;;
43504;SDS011;29098;48.184;16.298;2023-11-21T00:36:06;7.30;;;2.28;;
43504;SDS011;29098;48.184;16.298;2023-11-21T00:38:35;7.03;;;2.10;;
43504;SDS011;29098;48.184;16.298;2023-11-21T00:41:01;6.97;;;2.28;;
43504;SDS011;29098;48.184;16.298;2023-11-21T00:43:28;4.90;;;2.20;;
43504;SDS011;29098;48.184;16.298;2023-11-21T00:45:53;8.20;;;2.60;;
43504;SDS011;29098;48.184;16.298;2023-11-21T00:48:19;9.70;;;2.78;;
43504;SDS011;29098;48.184;16.298;2023-11-21T00:50:44;7.35;;;2.80;;
43504;SDS011;29098;48.184;16.298;2023-11-21T00:53:10;6.65;;;2.65;;
43504;SDS011;29098;48.184;16.298;2023-11-21T00:55:38;12.60;;;2.63;;
43504;SDS011;29098;48.184;16.298;2023-11-21T00:58:05;6.35;;;1.98;;
43504;SDS011;29098;48.184;16.298;2023-11-21T01:00:32;6.63;;;2.70;;
43504;SDS011;29098;48.184;16.298;2023-11-21T01:02:58;4.85;;;2.15;;
43504;SDS011;29098;48.184;16.298;2023-11-21T01:05:25;6.20;;;2.47;;
43504;SDS011;29098;48.184;16.298;2023-11-21T01:07:50;8.75;;;2.17;;
43504;SDS011;29098;48.184;16.298;2023-11-21T01:10:16;7.13;;;2.63;;
43504;SDS011;29098;48.184;16.298;2023-11-21T01:12:42;5.72;;;2.92;;
43504;SDS011;29098;48.184;16.298;2023-11-21T01:15:08;7.15;;;2.50;;
43504;SDS011;29098;48.184;16.298;2023-11-21T01:17:34;8.23;;;2.58;;
43504;SDS011;29098;48.184;16.298;2023-11-21T01:20:01;5.75;;;2.15;;
43504;SDS011;29098;48.184;16.298;2023-11-21T01:22:28;6.47;;;2.25;;
43504;SDS011;29098;48.184;16.298;2023-11-21T01:24:53;5.18;;;2.50;;
43504;SDS011;29098;48.184;16.298;2023-11-21T01:27:19;6.20;;;2.65;;
43504;SDS011;29098;48.184;16.298;2023-11-21T01:29:45;7.55;;;2.72;;
43504;SDS011;29098;48.184;16.298;2023-11-21T01:32:11;6.85;;;2.40;;
43504;SDS011;29098;48.184;16.298;2023-11-21T01:34:36;5.60;;;3.15;;
43504;SDS011;29098;48.184;16.298;2023-11-21T01:37:02;5.63;;;2.35;;
43504;SDS011;29098;48.184;16.298;2023-11-21T01:39:30;6.28;;;2.00;;
43504;SDS011;29098;48.184;16.298;2023-11-21T01:41:56;6.68;;;2.58;;
43504;SDS011;29098;48.184;16.298;2023-11-21T01:44:26;5.10;;;2.35;;
43504;SDS011;29098;48.184;16.298;2023-11-21T01:46:52;6.88;;;3.10;;
43504;SDS011;29098;48.184;16.298;2023-11-21T01:49:18;8.80;;;2.97;;
43504;SDS011;29098;48.184;16.298;2023-11-21T01:51:46;8.90;;;2.60;;
43504;SDS011;29098;48.184;16.298;2023-11-21T01:54:14;7.75;;;2.10;;
43504;SDS011;29098;48.184;16.298;2023-11-21T01:56:42;5.07;;;2.15;;
43504;SDS011;29098;48.184;16.298;2023-11-21T01:59:11;5.28;;;2.45;;
43504;SDS011;29098;48.184;16.298;2023-11-21T02:01:42;8.10;;;2.30;;
43504;SDS011;29098;48.184;16.298;2023-11-21T02:04:09;5.50;;;2.17;;
43504;SDS011;29098;48.184;16.298;2023-11-21T02:06:35;7.82;;;4.82;;
43504;SDS011;29098;48.184;16.298;2023-11-21T02:09:00;6.93;;;2.55;;
43504;SDS011;29098;48.184;16.298;2023-11-21T02:11:26;9.15;;;2.95;;
43504;SDS011;29098;48.184;16.298;2023-11-21T02:13:53;9.15;;;2.63;;
43504;SDS011;29098;48.184;16.298;2023-11-21T02:16:19;6.03;;;2.65;;
43504;SDS011;29098;48.184;16.298;2023-11-21T02:18:46;6.72;;;2.53;;
43504;SDS011;29098;48.184;16.298;2023-11-21T02:21:13;8.35;;;3.00;;
43504;SDS011;29098;48.184;16.298;2023-11-21T02:23:39;7.65;;;2.03;;
43504;SDS011;29098;48.184;16.298;2023-11-21T02:26:09;4.38;;;2.38;;
43504;SDS011;29098;48.184;16.298;2023-11-21T02:28:35;9.25;;;3.60;;
43504;SDS011;29098;48.184;16.298;2023-11-21T02:31:01;6.18;;;2.70;;
43504;SDS011;29098;48.184;16.298;2023-11-21T02:33:28;5.13;;;2.13;;
43504;SDS011;29098;48.184;16.298;2023-11-21T02:35:53;4.80;;;2.30;;
43504;SDS011;29098;48.184;16.298;2023-11-21T02:38:20;7.88;;;2.65;;
43504;SDS011;29098;48.184;16.298;2023-11-21T02:40:46;4.80;;;2.10;;
43504;SDS011;29098;48.184;16.298;2023-11-21T02:43:14;5.05;;;2.50;;
43504;SDS011;29098;48.184;16.298;2023-11-21T02:45:39;7.65;;;2.50;;
43504;SDS011;29098;48.184;16.298;2023-11-21T02:48:06;5.75;;;2.20;;
43504;SDS011;29098;48.184;16.298;2023-11-21T02:50:32;5.05;;;2.40;;
43504;SDS011;29098;48.184;16.298;2023-11-21T02:53:00;5.00;;;2.08;;
43504;SDS011;29098;48.184;16.298;2023-11-21T02:55:26;6.80;;;2.00;;
43504;SDS011;29098;48.184;16.298;2023-11-21T02:57:52;6.10;;;2.10;;
43504;SDS011;29098;48.184;16.298;2023-11-21T03:00:18;5.60;;;2.45;;
43504;SDS011;29098;48.184;16.298;2023-11-21T03:02:44;6.38;;;2.30;;
43504;SDS011;29098;48.184;16.298;2023-11-21T03:05:12;5.93;;;2.75;;
43504;SDS011;29098;48.184;16.298;2023-11-21T03:07:38;5.68;;;2.35;;
43504;SDS011;29098;48.184;16.298;2023-11-21T03:10:03;5.40;;;1.75;;
43504;SDS011;29098;48.184;16.298;2023-11-21T03:12:29;8.45;;;2.42;;
43504;SDS011;29098;48.184;16.298;2023-11-21T03:14:55;8.70;;;2.60;;
43504;SDS011;29098;48.184;16.298;2023-11-21T03:17:21;6.57;;;3.00;;
43504;SDS011;29098;48.184;16.298;2023-11-21T03:19:46;7.03;;;2.95;;
43504;SDS011;29098;48.184;16.298;2023-11-21T03:22:12;4.45;;;2.15;;
43504;SDS011;29098;48.184;16.298;2023-11-21T03:24:38;8.23;;;2.15;;
43504;SDS011;29098;48.184;16.298;2023-11-21T03:27:04;5.72;;;2.20;;
43504;SDS011;29098;48.184;16.298;2023-11-21T03:29:29;4.97;;;2.00;;
43504;SDS011;29098;48.184;16.298;2023-11-21T03:31:55;6.68;;;2.42;;
43504;SDS011;29098;48.184;16.298;2023-11-21T03:34:27;7.70;;;3.33;;
43504;SDS011;29098;48.184;16.298;2023-11-21T03:36:53;5.90;;;2.08;;
43504;SDS011;29098;48.184;16.298;2023-11-21T03:39:22;5.85;;;2.47;;
43504;SDS011;29098;48.184;16.298;2023-11-21T03:41:48;5.15;;;2.45;;
43504;SDS011;29098;48.184;16.298;2023-11-21T03:44:14;5.10;;;2.33;;
43504;SDS011;29098;48.184;16.298;2023-11-21T03:46:40;6.63;;;2.13;;
43504;SDS011;29098;48.184;16.298;2023-11-21T03:49:06;4.38;;;2.40;;
43504;SDS011;29098;48.184;16.298;2023-11-21T03:51:31;5.95;;;2.20;;
43504;SDS011;29098;48.184;16.298;2023-11-21T03:53:56;5.78;;;2.42;;
43504;SDS011;29098;48.184;16.298;2023-11-21T03:56:22;7.65;;;2.28;;
43504;SDS011;29098;48.184;16.298;2023-11-21T03:58:48;4.45;;;2.25;;
43504;SDS011;29098;48.184;16.298;2023-11-21T04:01:32;7.15;;;2.40;;
43504;SDS011;29098;48.184;16.298;2023-11-21T04:03:58;11.05;;;2.92;;
43504;SDS011;29098;48.184;16.298;2023-11-21T04:06:24;5.90;;;2.40;;
43504;SDS011;29098;48.184;16.298;2023-11-21T04:08:50;5.82;;;2.70;;
43504;SDS011;29098;48.184;16.298;2023-11-21T04:11:16;5.30;;;2.10;;
43504;SDS011;29098;48.184;16.298;2023-11-21T04:13:41;7.30;;;2.38;;
43504;SDS011;29098;48.184;16.298;2023-11-21T04:16:07;6.18;;;2.35;;
43504;SDS011;29098;48.184;16.298;2023-11-21T04:18:36;5.88;;;2.30;;
43504;SDS011;29098;48.184;16.298;2023-11-21T04:21:03;7.63;;;2.97;;
43504;SDS011;29098;48.184;16.298;2023-11-21T04:23:33;6.53;;;2.17;;
43504;SDS011;29098;48.184;16.298;2023-11-21T04:25:59;7.32;;;2.35;;
43504;SDS011;29098;48.184;16.298;2023-11-21T04:28:26;10.52;;;2.40;;
43504;SDS011;29098;48.184;16.298;2023-11-21T04:30:52;8.55;;;2.35;;
43504;SDS011;29098;48.184;16.298;2023-11-21T04:33:18;6.57;;;2.17;;
43504;SDS011;29098;48.184;16.298;2023-11-21T04:35:43;6.70;;;2.15;;
43504;SDS011;29098;48.184;16.298;2023-11-21T04:38:09;6.80;;;2.15;;
43504;SDS011;29098;48.184;16.298;2023-11-21T04:40:34;4.15;;;2.10;;
43504;SDS011;29098;48.184;16.298;2023-11-21T04:43:00;7.78;;;2.83;;
43504;SDS011;29098;48.184;16.298;2023-11-21T04:45:26;6.55;;;2.80;;
43504;SDS011;29098;48.184;16.298;2023-11-21T04:47:52;7.43;;;2.97;;
43504;SDS011;29098;48.184;16.298;2023-11-21T04:50:17;10.82;;;2.67;;
43504;SDS011;29098;48.184;16.298;2023-11-21T04:52:43;9.38;;;3.17;;
43504;SDS011;29098;48.184;16.298;2023-11-21T04:55:08;6.43;;;2.00;;
43504;SDS011;29098;48.184;16.298;2023-11-21T04:57:35;4.28;;;2.20;;
43504;SDS011;29098;48.184;16.298;2023-11-21T05:00:01;6.07;;;1.80;;
43504;SDS011;29098;48.184;16.298;2023-11-21T05:02:31;7.20;;;3.30;;
43504;SDS011;29098;48.184;16.298;2023-11-21T05:04:59;6.28;;;2.67;;
43504;SDS011;29098;48.184;16.298;2023-11-21T05:07:25;4.32;;;2.03;;
43504;SDS011;29098;48.184;16.298;2023-11-21T05:09:54;6.65;;;2.00;;
43504;SDS011;29098;48.184;16.298;2023-11-21T05:12:21;8.82;;;3.17;;
43504;SDS011;29098;48.184;16.298;2023-11-21T05:14:48;4.68;;;1.70;;
43504;SDS011;29098;48.184;16.298;2023-11-21T05:17:14;4.93;;;2.20;;
43504;SDS011;29098;48.184;16.298;2023-11-21T05:19:40;6.07;;;2.63;;
43504;SDS011;29098;48.184;16.298;2023-11-21T05:22:06;5.93;;;2.55;;
43504;SDS011;29098;48.184;16.298;2023-11-21T05:24:33;7.85;;;2.72;;
43504;SDS011;29098;48.184;16.298;2023-11-21T05:26:58;6.70;;;2.70;;
43504;SDS011;29098;48.184;16.298;2023-11-21T05:29:24;6.72;;;2.50;;
43504;SDS011;29098;48.184;16.298;2023-11-21T05:31:50;6.95;;;2.50;;
43504;SDS011;29098;48.184;16.298;2023-11-21T05:34:16;4.82;;;2.67;;
43504;SDS011;29098;48.184;16.298;2023-11-21T05:36:45;6.93;;;3.20;;
43504;SDS011;29098;48.184;16.298;2023-11-21T05:39:11;5.07;;;2.22;;
43504;SDS011;29098;48.184;16.298;2023-11-21T05:41:37;6.32;;;3.08;;
43504;SDS011;29098;48.184;16.298;2023-11-21T05:44:02;7.07;;;2.60;;
43504;SDS011;29098;48.184;16.298;2023-11-21T05:46:28;5.03;;;2.20;;
43504;SDS011;29098;48.184;16.298;2023-11-21T05:48:53;6.88;;;2.53;;
43504;SDS011;29098;48.184;16.298;2023-11-21T05:51:20;6.53;;;2.50;;
43504;SDS011;29098;48.184;16.298;2023-11-21T05:53:45;6.78;;;2.38;;
43504;SDS011;29098;48.184;16.298;2023-11-21T05:56:11;7.80;;;2.80;;
43504;SDS011;29098;48.184;16.298;2023-11-21T05:58:38;9.48;;;3.47;;
43504;SDS011;29098;48.184;16.298;2023-11-21T06:01:05;5.10;;;2.47;;
43504;SDS011;29098;48.184;16.298;2023-11-21T06:03:32;6.93;;;2.70;;
43504;SDS011;29098;48.184;16.298;2023-11-21T06:05:58;13.82;;;3.38;;
43504;SDS011;29098;48.184;16.298;2023-11-21T06:08:24;8.23;;;3.00;;
43504;SDS011;29098;48.184;16.298;2023-11-21T06:10:49;7.60;;;3.55;;
43504;SDS011;29098;48.184;16.298;2023-11-21T06:13:15;8.60;;;2.63;;
43504;SDS011;29098;48.184;16.298;2023-11-21T06:15:40;9.35;;;2.78;;
43504;SDS011;29098;48.184;16.298;2023-11-21T06:18:06;10.45;;;3.00;;
43504;SDS011;29098;48.184;16.298;2023-11-21T06:20:35;9.88;;;2.65;;
43504;SDS011;29098;48.184;16.298;2023-11-21T06:23:02;5.53;;;2.72;;
43504;SDS011;29098;48.184;16.298;2023-11-21T06:25:28;4.95;;;2.67;;
43504;SDS011;29098;48.184;16.298;2023-11-21T06:27:54;7.43;;;2.70;;
43504;SDS011;29098;48.184;16.298;2023-11-21T06:30:21;6.20;;;2.70;;
43504;SDS011;29098;48.184;16.298;2023-11-21T06:32:48;5.25;;;2.22;;
43504;SDS011;29098;48.184;16.298;2023-11-21T06:35:15;5.40;;;2.80;;
43504;SDS011;29098;48.184;16.298;2023-11-21T06:37:40;9.90;;;3.17;;
43504;SDS011;29098;48.184;16.298;2023-11-21T06:40:06;7.80;;;2.97;;
43504;SDS011;29098;48.184;16.298;2023-11-21T06:42:32;5.85;;;2.97;;
43504;SDS011;29098;48.184;16.298;2023-11-21T06:45:03;10.32;;;3.47;;
43504;SDS011;29098;48.184;16.298;2023-11-21T06:47:29;8.38;;;2.92;;
43504;SDS011;29098;48.184;16.298;2023-11-21T06:49:56;7.90;;;3.42;;
43504;SDS011;29098;48.184;16.298;2023-11-21T06:52:22;6.35;;;2.72;;
43504;SDS011;29098;48.184;16.298;2023-11-21T06:54:48;9.10;;;3.08;;
43504;SDS011;29098;48.184;16.298;2023-11-21T06:57:16;11.15;;;2.80;;
43504;SDS011;29098;48.184;16.298;2023-11-21T06:59:42;6.90;;;3.00;;
43504;SDS011;29098;48.184;16.298;2023-11-21T07:02:08;6.35;;;3.00;;
43504;SDS011;29098;48.184;16.298;2023-11-21T07:04:34;9.10;;;3.50;;
43504;SDS011;29098;48.184;16.298;2023-11-21T07:07:02;9.43;;;3.50;;
43504;SDS011;29098;48.184;16.298;2023-11-21T07:09:28;9.88;;;4.65;;
43504;SDS011;29098;48.184;16.298;2023-11-21T07:11:54;9.05;;;3.58;;
43504;SDS011;29098;48.184;16.298;2023-11-21T07:14:20;14.18;;;6.20;;
43504;SDS011;29098;48.184;16.298;2023-11-21T07:16:46;11.38;;;5.90;;
43504;SDS011;29098;48.184;16.298;2023-11-21T07:19:12;13.07;;;5.35;;
43504;SDS011;29098;48.184;16.298;2023-11-21T07:21:38;13.48;;;4.88;;
43504;SDS011;29098;48.184;16.298;2023-11-21T07:24:07;9.23;;;4.40;;
43504;SDS011;29098;48.184;16.298;2023-11-21T07:26:33;11.70;;;4.75;;
43504;SDS011;29098;48.184;16.298;2023-11-21T07:28:59;9.77;;;3.90;;
43504;SDS011;29098;48.184;16.298;2023-11-21T07:31:25;9.20;;;4.85;;
43504;SDS011;29098;48.184;16.298;2023-11-21T07:33:51;13.15;;;6.80;;
43504;SDS011;29098;48.184;16.298;2023-11-21T07:36:17;12.05;;;5.13;;
43504;SDS011;29098;48.184;16.298;2023-11-21T07:38:43;11.65;;;5.13;;
43504;SDS011;29098;48.184;16.298;2023-11-21T07:41:10;9.05;;;4.40;;
43504;SDS011;29098;48.184;16.298;2023-11-21T07:43:36;12.43;;;3.78;;
43504;SDS011;29098;48.184;16.298;2023-11-21T07:46:02;11.30;;;4.45;;
43504;SDS011;29098;48.184;16.298;2023-11-21T07:48:31;11.95;;;4.85;;
43504;SDS011;29098;48.184;16.298;2023-11-21T07:50:58;9.27;;;5.07;;
43504;SDS011;29098;48.184;16.298;2023-11-21T07:53:24;8.50;;;4.25;;
43504;SDS011;29098;48.184;16.298;2023-11-21T07:55:50;9.45;;;3.90;;
43504;SDS011;29098;48.184;16.298;2023-11-21T07:58:17;10.30;;;3.92;;
43504;SDS011;29098;48.184;16.298;2023-11-21T08:00:43;10.88;;;3.85;;
43504;SDS011;29098;48.184;16.298;2023-11-21T08:03:09;9.50;;;3.55;;
43504;SDS011;29098;48.184;16.298;2023-11-21T08:05:36;9.23;;;3.40;;
43504;SDS011;29098;48.184;16.298;2023-11-21T08:08:02;15.07;;;5.85;;
43504;SDS011;29098;48.184;16.298;2023-11-21T08:10:27;9.30;;;4.03;;
43504;SDS011;29098;48.184;16.298;2023-11-21T08:12:53;9.23;;;4.22;;
43504;SDS011;29098;48.184;16.298;2023-11-21T08:15:19;13.20;;;4.53;;
43504;SDS011;29098;48.184;16.298;2023-11-21T08:17:45;9.82;;;3.92;;
43504;SDS011;29098;48.184;16.298;2023-11-21T08:20:11;12.93;;;5.15;;
43504;SDS011;29098;48.184;16.298;2023-11-21T08:22:38;8.68;;;3.63;;
43504;SDS011;29098;48.184;16.298;2023-11-21T08:25:06;7.25;;;3.72;;
43504;SDS011;29098;48.184;16.298;2023-11-21T08:27:33;10.77;;;3.80;;
43504;SDS011;29098;48.184;16.298;2023-11-21T08:30:00;11.90;;;4.85;;
43504;SDS011;29098;48.184;16.298;2023-11-21T08:32:26;8.90;;;4.03;;
43504;SDS011;29098;48.184;16.298;2023-11-21T08:34:51;10.30;;;3.58;;
43504;SDS011;29098;48.184;16.298;2023-11-21T08:37:17;8.15;;;3.80;;
43504;SDS011;29098;48.184;16.298;2023-11-21T08:39:46;13.18;;;4.75;;
43504;SDS011;29098;48.184;16.298;2023-11-21T08:42:13;12.18;;;3.97;;
43504;SDS011;29098;48.184;16.298;2023-11-21T08:44:39;9.25;;;3.33;;
43504;SDS011;29098;48.184;16.298;2023-11-21T08:47:05;8.18;;;3.20;;
43504;SDS011;29098;48.184;16.298;2023-11-21T08:49:31;6.40;;;2.75;;
43504;SDS011;29098;48.184;16.298;2023-11-21T08:51:57;9.85;;;3.35;;
43504;SDS011;29098;48.184;16.298;2023-11-21T08:54:26;7.07;;;2.90;;
43504;SDS011;29098;48.184;16.298;2023-11-21T08:56:52;8.02;;;2.67;;
43504;SDS011;29098;48.184;16.298;2023-11-21T08:59:18;7.88;;;2.58;;
43504;SDS011;29098;48.184;16.298;2023-11-21T09:01:45;10.73;;;2.80;;
43504;SDS011;29098;48.184;16.298;2023-11-21T09:04:11;6.72;;;3.22;;
43504;SDS011;29098;48.184;16.298;2023-11-21T09:06:38;7.20;;;3.38;;
43504;SDS011;29098;48.184;16.298;2023-11-21T09:09:05;8.77;;;2.85;;
43504;SDS011;29098;48.184;16.298;2023-11-21T09:11:33;7.78;;;2.40;;
43504;SDS011;29098;48.184;16.298;2023-11-21T09:13:59;6.78;;;2.72;;
43504;SDS011;29098;48.184;16.298;2023-11-21T09:16:25;6.10;;;2.50;;
43504;SDS011;29098;48.184;16.298;2023-11-21T09:18:50;6.95;;;2.38;;
43504;SDS011;29098;48.184;16.298;2023-11-21T09:21:16;7.70;;;2.08;;
43504;SDS011;29098;48.184;16.298;2023-11-21T09:23:42;4.68;;;1.52;;
43504;SDS011;29098;48.184;16.298;2023-11-21T09:26:11;7.57;;;2.17;;
43504;SDS011;29098;48.184;16.298;2023-11-21T09:28:37;4.13;;;2.00;;
43504;SDS011;29098;48.184;16.298;2023-11-21T09:31:03;3.80;;;1.48;;
43504;SDS011;29098;48.184;16.298;2023-11-21T09:33:30;6.82;;;1.90;;
43504;SDS011;29098;48.184;16.298;2023-11-21T09:35:56;7.35;;;1.60;;
43504;SDS011;29098;48.184;16.298;2023-11-21T09:38:22;5.50;;;1.38;;
43504;SDS011;29098;48.184;16.298;2023-11-21T09:40:48;6.18;;;1.40;;
43504;SDS011;29098;48.184;16.298;2023-11-21T09:43:18;7.63;;;2.33;;
43504;SDS011;29098;48.184;16.298;2023-11-21T09:45:48;4.82;;;1.38;;
43504;SDS011;29098;48.184;16.298;2023-11-21T09:48:19;7.05;;;1.65;;
43504;SDS011;29098;48.184;16.298;2023-11-21T09:50:47;4.63;;;1.15;;
43504;SDS011;29098;48.184;16.298;2023-11-21T09:55:50;3.22;;;1.23;;
43504;SDS011;29098;48.184;16.298;2023-11-21T09:58:18;5.28;;;1.30;;
43504;SDS011;29098;48.184;16.298;2023-11-21T10:00:47;4.47;;;1.20;;
43504;SDS011;29098;48.184;16.298;2023-11-21T10:03:13;4.03;;;1.40;;
43504;SDS011;29098;48.184;16.298;2023-11-21T10:05:40;6.05;;;1.08;;
43504;SDS011;29098;48.184;16.298;2023-11-21T10:08:12;3.22;;;1.00;;
43504;SDS011;29098;48.184;16.298;2023-11-21T10:10:38;5.57;;;1.50;;
43504;SDS011;29098;48.184;16.298;2023-11-21T10:13:13;3.15;;;1.27;;
43504;SDS011;29098;48.184;16.298;2023-11-21T10:15:41;4.57;;;1.35;;
43504;SDS011;29098;48.184;16.298;2023-11-21T10:18:13;4.00;;;1.20;;
43504;SDS011;29098;48.184;16.298;2023-11-21T10:20:40;5.18;;;2.03;;
43504;SDS011;29098;48.184;16.298;2023-11-21T10:23:06;3.13;;;1.30;;
43504;SDS011;29098;48.184;16.298;2023-11-21T10:25:36;4.57;;;1.33;;
43504;SDS011;29098;48.184;16.298;2023-11-21T10:28:02;4.65;;;1.35;;
43504;SDS011;29098;48.184;16.298;2023-11-21T10:30:34;4.25;;;1.58;;
43504;SDS011;29098;48.184;16.298;2023-11-21T10:33:02;4.03;;;1.83;;
43504;SDS011;29098;48.184;16.298;2023-11-21T10:35:39;6.55;;;1.63;;
43504;SDS011;29098;48.184;16.298;2023-11-21T10:38:16;6.32;;;1.40;;
43504;SDS011;29098;48.184;16.298;2023-11-21T10:40:43;4.85;;;1.90;;
43504;SDS011;29098;48.184;16.298;2023-11-21T10:43:10;5.93;;;2.05;;
43504;SDS011;29098;48.184;16.298;2023-11-21T10:45:38;4.30;;;1.70;;
43504;SDS011;29098;48.184;16.298;2023-11-21T10:48:07;5.43;;;1.30;;
43504;SDS011;29098;48.184;16.298;2023-11-21T10:50:34;5.38;;;1.20;;
43504;SDS011;29098;48.184;16.298;2023-11-21T10:53:04;4.85;;;1.52;;
43504;SDS011;29098;48.184;16.298;2023-11-21T10:55:30;4.90;;;1.33;;
43504;SDS011;29098;48.184;16.298;2023-11-21T10:57:58;3.97;;;1.40;;
43504;SDS011;29098;48.184;16.298;2023-11-21T11:00:27;4.20;;;1.40;;
43504;SDS011;29098;48.184;16.298;2023-11-21T11:02:53;5.07;;;1.60;;
43504;SDS011;29098;48.184;16.298;2023-11-21T11:05:20;3.50;;;1.45;;
43504;SDS011;29098;48.184;16.298;2023-11-21T11:07:51;4.35;;;1.33;;
43504;SDS011;29098;48.184;16.298;2023-11-21T11:10:29;2.53;;;1.08;;
43504;SDS011;29098;48.184;16.298;2023-11-21T11:12:55;4.10;;;1.30;;
43504;SDS011;29098;48.184;16.298;2023-11-21T11:15:23;6.85;;;2.53;;
43504;SDS011;29098;48.184;16.298;2023-11-21T11:17:53;6.13;;;1.40;;
43504;SDS011;29098;48.184;16.298;2023-11-21T11:20:22;6.20;;;1.50;;
43504;SDS011;29098;48.184;16.298;2023-11-21T11:31:27;4.85;;;1.95;;
43504;SDS011;29098;48.184;16.298;2023-11-21T11:34:08;3.15;;;1.42;;
43504;SDS011;29098;48.184;16.298;2023-11-21T11:36:49;4.07;;;1.20;;
43504;SDS011;29098;48.184;16.298;2023-11-21T11:39:38;2.85;;;1.10;;
43504;SDS011;29098;48.184;16.298;2023-11-21T11:42:08;3.45;;;1.23;;
43504;SDS011;29098;48.184;16.298;2023-11-21T11:52:32;5.55;;;1.75;;
43504;SDS011;29098;48.184;16.298;2023-11-21T11:55:03;3.63;;;1.08;;
43504;SDS011;29098;48.184;16.298;2023-11-21T11:57:30;2.95;;;1.40;;
43504;SDS011;29098;48.184;16.298;2023-11-21T12:02:41;3.92;;;1.20;;
43504;SDS011;29098;48.184;16.298;2023-11-21T12:05:13;3.05;;;1.10;;
43504;SDS011;29098;48.184;16.298;2023-11-21T12:07:44;2.63;;;1.23;;
43504;SDS011;29098;48.184;16.298;2023-11-21T12:10:26;5.47;;;1.40;;
43504;SDS011;29098;48.184;16.298;2023-11-21T12:13:02;4.78;;;1.25;;
43504;SDS011;29098;48.184;16.298;2023-11-21T12:15:37;3.33;;;1.55;;
43504;SDS011;29098;48.184;16.298;2023-11-21T12:18:03;2.40;;;0.82;;
43504;SDS011;29098;48.184;16.298;2023-11-21T12:20:29;3.92;;;2.13;;
43504;SDS011;29098;48.184;16.298;2023-11-21T12:22:59;7.70;;;1.50;;
43504;SDS011;29098;48.184;16.298;2023-11-21T12:25:26;4.53;;;1.73;;
43504;SDS011;29098;48.184;16.298;2023-11-21T12:27:57;6.15;;;1.30;;
43504;SDS011;29098;48.184;16.298;2023-11-21T12:30:23;4.00;;;1.52;;
43504;SDS011;29098;48.184;16.298;2023-11-21T12:32:53;3.83;;;1.33;;
43504;SDS011;29098;48.184;16.298;2023-11-21T12:35:27;4.07;;;1.45;;
43504;SDS011;29098;48.184;16.298;2023-11-21T12:37:59;3.83;;;1.52;;
43504;SDS011;29098;48.184;16.298;2023-11-21T12:40:27;2.50;;;1.23;;
43504;SDS011;29098;48.184;16.298;2023-11-21T12:42:57;3.33;;;1.35;;
43504;SDS011;29098;48.184;16.298;2023-11-21T12:45:25;3.35;;;1.02;;
43504;SDS011;29098;48.184;16.298;2023-11-21T12:47:55;5.28;;;1.63;;
43504;SDS011;29098;48.184;16.298;2023-11-21T12:50:28;5.47;;;1.52;;
43504;SDS011;29098;48.184;16.298;2023-11-21T12:53:03;3.15;;;1.20;;
43504;SDS011;29098;48.184;16.298;2023-11-21T12:55:37;5.18;;;1.52;;
43504;SDS011;29098;48.184;16.298;2023-11-21T12:58:03;5.15;;;1.48;;
43504;SDS011;29098;48.184;16.298;2023-11-21T13:00:35;4.30;;;1.52;;
43504;SDS011;29098;48.184;16.298;2023-11-21T13:03:03;4.45;;;1.70;;
43504;SDS011;29098;48.184;16.298;2023-11-21T13:05:34;7.80;;;2.55;;
43504;SDS011;29098;48.184;16.298;2023-11-21T13:08:04;5.20;;;2.28;;
43504;SDS011;29098;48.184;16.298;2023-11-21T13:10:33;6.72;;;1.40;;
43504;SDS011;29098;48.184;16.298;2023-11-21T13:13:01;4.07;;;1.90;;
43504;SDS011;29098;48.184;16.298;2023-11-21T13:15:39;2.70;;;1.30;;
43504;SDS011;29098;48.184;16.298;2023-11-21T13:18:08;3.75;;;1.38;;
43504;SDS011;29098;48.184;16.298;2023-11-21T13:20:36;3.50;;;1.40;;
43504;SDS011;29098;48.184;16.298;2023-11-21T13:23:07;5.07;;;1.50;;
43504;SDS011;29098;48.184;16.298;2023-11-21T13:25:33;3.90;;;1.60;;
43504;SDS011;29098;48.184;16.298;2023-11-21T13:28:06;3.58;;;1.42;;
43504;SDS011;29098;48.184;16.298;2023-11-21T13:30:33;4.75;;;1.63;;
43504;SDS011;29098;48.184;16.298;2023-11-21T13:32:59;4.53;;;1.25;;
43504;SDS011;29098;48.184;16.298;2023-11-21T13:35:35;4.07;;;1.20;;
43504;SDS011;29098;48.184;16.298;2023-11-21T13:38:11;3.17;;;1.55;;
43504;SDS011;29098;48.184;16.298;2023-11-21T13:40:38;9.13;;;1.92;;
43504;SDS011;29098;48.184;16.298;2023-11-21T13:43:13;6.97;;;1.88;;
43504;SDS011;29098;48.184;16.298;2023-11-21T13:45:40;5.75;;;1.40;;
43504;SDS011;29098;48.184;16.298;2023-11-21T13:48:07;4.10;;;1.67;;
43504;SDS011;29098;48.184;16.298;2023-11-21T13:50:44;9.43;;;2.55;;
43504;SDS011;29098;48.184;16.298;2023-11-21T13:53:20;5.75;;;1.63;;
43504;SDS011;29098;48.184;16.298;2023-11-21T13:55:49;5.97;;;2.05;;
43504;SDS011;29098;48.184;16.298;2023-11-21T13:58:18;10.02;;;3.25;;
43504;SDS011;29098;48.184;16.298;2023-11-21T14:00:49;5.82;;;3.03;;
43504;SDS011;29098;48.184;16.298;2023-11-21T14:03:22;7.25;;;1.73;;
43504;SDS011;29098;48.184;16.298;2023-11-21T14:06:03;6.45;;;1.88;;
43504;SDS011;29098;48.184;16.298;2023-11-21T14:08:34;4.03;;;1.65;;
43504;SDS011;29098;48.184;16.298;2023-11-21T14:11:00;6.35;;;1.88;;
43504;SDS011;29098;48.184;16.298;2023-11-21T14:13:26;3.97;;;1.73;;
43504;SDS011;29098;48.184;16.298;2023-11-21T14:15:52;6.35;;;1.88;;
43504;SDS011;29098;48.184;16.298;2023-11-21T14:18:24;4.15;;;1.80;;
43504;SDS011;29098;48.184;16.298;2023-11-21T14:21:03;4.90;;;1.60;;
43504;SDS011;29098;48.184;16.298;2023-11-21T14:23:31;5.47;;;1.90;;
43504;SDS011;29098;48.184;16.298;2023-11-21T14:25:59;9.25;;;3.42;;
43504;SDS011;29098;48.184;16.298;2023-11-21T14:28:26;7.32;;;2.20;;
43504;SDS011;29098;48.184;16.298;2023-11-21T14:30:52;6.38;;;2.25;;
43504;SDS011;29098;48.184;16.298;2023-11-21T14:33:18;5.18;;;2.33;;
43504;SDS011;29098;48.184;16.298;2023-11-21T14:35:44;5.38;;;2.45;;
43504;SDS011;29098;48.184;16.298;2023-11-21T14:38:10;4.75;;;2.10;;
43504;SDS011;29098;48.184;16.298;2023-11-21T14:40:39;6.53;;;2.78;;
43504;SDS011;29098;48.184;16.298;2023-11-21T14:43:06;5.57;;;2.15;;
43504;SDS011;29098;48.184;16.298;2023-11-21T14:45:32;5.53;;;2.42;;
43504;SDS011;29098;48.184;16.298;2023-11-21T14:47:59;8.90;;;2.55;;
43504;SDS011;29098;48.184;16.298;2023-11-21T14:50:41;5.65;;;2.38;;
43504;SDS011;29098;48.184;16.298;2023-11-21T14:53:11;6.22;;;2.35;;
43504;SDS011;29098;48.184;16.298;2023-11-21T14:55:38;7.20;;;2.97;;
43504;SDS011;29098;48.184;16.298;2023-11-21T14:58:16;7.30;;;2.53;;